Time;durP1;ratioP1;P1;durP2;ratioP2;P2;SDS_P1;SDS_P2;PMS_P1;PMS_P2;Temp;Humidity;BMP_temperature;BMP_pressure;BME280_temperature;BME280_humidity;BME280_pressure;Samples;Min_cycle;Max_cycle;Signal;HPM_P1;HPM_P2
2021/04/06 00:01:46;;;;;;;12.85;8.83;;;;;;;2.89;61.37;98158.85;1721812;82;21130;-60
2021/04/06 00:04:15;;;;;;;;;;;;;;;2.90;61.28;98161.30;1692895;83;21223;-60
2021/04/06 00:06:47;;;;;;;16.97;10.15;;;;;;;2.89;61.31;98165.57;1712305;83;20153;-60
2021/04/06 00:09:19;;;;;;;16.60;9.85;;;;;;;2.86;61.36;98165.56;1662094;84;21185;-60
2021/04/06 00:11:47;;;;;;;15.08;9.95;;;;;;;2.83;61.52;98166.09;1667828;85;21309;-60
2021/04/06 00:14:16;;;;;;;15.00;9.60;;;;;;;2.86;61.35;98165.56;1657108;86;21142;-60
2021/04/06 00:16:45;;;;;;;15.32;9.85;;;;;;;2.84;61.58;98170.91;1713907;82;21156;-60
2021/04/06 00:19:16;;;;;;;17.52;10.00;;;;;;;2.83;61.64;98167.97;1730978;82;21263;-60
2021/04/06 00:21:45;;;;;;;12.85;9.18;;;;;;;2.81;61.60;98163.36;1743665;82;21148;-60
2021/04/06 00:24:13;;;;;;;15.83;9.85;;;;;;;2.79;61.77;98160.95;1694213;83;21287;-60
2021/04/06 00:26:53;;;;;;;16.30;10.13;;;;;;;2.80;61.75;98159.86;1683647;82;21858;-60
2021/04/06 00:29:22;;;;;;;16.07;9.68;;;;;;;2.78;61.75;98165.23;1727395;82;21149;-60
2021/04/06 00:31:52;;;;;;;19.37;9.88;;;;;;;2.74;61.90;98160.09;1739524;82;21170;-60
2021/04/06 00:34:21;;;;;;;15.43;9.28;;;;;;;2.66;62.21;98153.33;1654224;85;21193;-61
2021/04/06 00:36:53;;;;;;;16.55;9.60;;;;;;;2.67;62.02;98153.61;1724956;82;21286;-60
2021/04/06 00:39:28;;;;;;;15.72;9.50;;;;;;;2.62;62.25;98151.44;1733845;82;21133;-60
2021/04/06 00:41:58;;;;;;;14.60;9.78;;;;;;;2.61;62.16;98151.97;1736547;82;21247;-60
2021/04/06 00:44:25;;;;;;;16.55;9.90;;;;;;;2.55;62.49;98143.58;1706729;83;21203;-60
2021/04/06 00:46:53;;;;;;;18.55;10.13;;;;;;;2.52;62.58;98148.13;1702139;82;21137;-60
2021/04/06 00:49:21;;;;;;;14.13;9.78;;;;;;;2.46;62.88;98148.64;1712449;83;21624;-60
2021/04/06 00:51:51;;;;;;;14.25;9.10;;;;;;;2.44;62.85;98144.60;1655437;85;21653;-60
2021/04/06 00:54:19;;;;;;;15.28;9.90;;;;;;;2.39;62.96;98144.55;1701103;82;21133;-60
2021/04/06 00:56:46;;;;;;;14.80;9.25;;;;;;;2.36;63.05;98141.86;1733616;82;21133;-60
2021/04/06 00:59:22;;;;;;;14.50;9.03;;;;;;;2.33;63.13;98149.09;1745733;82;21597;-60
2021/04/06 01:02:04;;;;;;;13.62;9.80;;;;;;;2.34;63.02;98142.63;1728680;82;21512;-60
2021/04/06 01:04:38;;;;;;;13.58;8.60;;;;;;;2.30;63.19;98151.47;1726578;82;21563;-60
2021/04/06 01:07:09;;;;;;;13.28;8.38;;;;;;;2.25;63.29;98137.47;1737334;82;21553;-60
2021/04/06 01:09:52;;;;;;;13.70;9.13;;;;;;;2.22;63.45;98148.73;1686319;85;21205;-60
2021/04/06 01:12:26;;;;;;;14.60;9.68;;;;;;;2.24;63.42;98152.48;1713580;82;21170;-60
2021/04/06 01:14:55;;;;;;;17.65;9.65;;;;;;;2.19;63.58;98142.53;1729524;82;21166;-60
2021/04/06 01:17:26;;;;;;;14.03;9.53;;;;;;;2.19;63.50;98148.42;1746137;82;21189;-60
2021/04/06 01:19:57;;;;;;;15.63;9.58;;;;;;;2.15;63.67;98147.31;1738778;82;21154;-60
2021/04/06 01:22:27;;;;;;;16.35;9.85;;;;;;;2.14;63.50;98145.16;1716387;82;21186;-60
2021/04/06 01:24:55;;;;;;;14.93;10.00;;;;;;;2.12;63.70;98147.30;1691863;82;21303;-60
2021/04/06 01:27:22;;;;;;;15.43;9.18;;;;;;;2.11;63.75;98142.99;1731215;82;21251;-60
2021/04/06 01:29:55;;;;;;;14.45;8.73;;;;;;;2.08;63.75;98152.09;1739463;82;21598;-60
2021/04/06 01:32:24;;;;;;;16.93;9.50;;;;;;;2.05;63.89;98146.70;1733160;82;21546;-60
2021/04/06 01:34:52;;;;;;;13.05;8.75;;;;;;;2.02;64.03;98145.06;1746131;82;21283;-60
2021/04/06 01:37:25;;;;;;;15.95;10.03;;;;;;;1.99;64.07;98149.86;1740300;82;21165;-60
2021/04/06 01:39:55;;;;;;;15.65;9.08;;;;;;;1.96;64.26;98141.51;1745231;82;21180;-60
2021/04/06 01:42:28;;;;;;;17.30;9.93;;;;;;;1.93;64.51;98142.84;1741872;82;21110;-61
2021/04/06 01:44:56;;;;;;;15.95;9.73;;;;;;;1.89;64.65;98146.27;1744411;82;21154;-61
2021/04/06 01:47:25;;;;;;;16.95;9.73;;;;;;;1.91;64.68;98142.83;1733401;82;21162;-61
2021/04/06 01:49:54;;;;;;;17.62;9.98;;;;;;;1.88;64.94;98145.98;1723753;82;21732;-61
2021/04/06 01:52:23;;;;;;;16.70;9.98;;;;;;;1.89;65.00;98140.91;1727075;82;21179;-61
2021/04/06 01:54:55;;;;;;;17.32;10.32;;;;;;;1.87;64.97;98147.89;1740902;82;21158;-61
2021/04/06 01:57:29;;;;;;;15.23;9.95;;;;;;;1.85;65.00;98146.50;1725569;82;21157;-60
2021/04/06 02:00:01;;;;;;;16.82;10.25;;;;;;;1.81;65.14;98143.52;1738503;82;21616;-61
2021/04/06 02:02:29;;;;;;;15.03;9.60;;;;;;;1.81;65.31;98145.38;1742948;82;21162;-61
2021/04/06 02:04:58;;;;;;;15.63;10.38;;;;;;;1.77;65.55;98138.38;1733349;82;21152;-61
2021/04/06 02:07:34;;;;;;;14.53;10.32;;;;;;;1.81;65.52;98146.20;1727750;82;21178;-60
2021/04/06 02:09:59;;;;;;;16.50;9.75;;;;;;;1.80;65.59;98146.47;1739907;82;21161;-60
2021/04/06 02:12:26;;;;;;;15.40;10.18;;;;;;;1.83;65.48;98139.25;1732108;82;21153;-60
2021/04/06 02:14:59;;;;;;;17.23;10.18;;;;;;;1.80;65.55;98130.38;1733580;82;21197;-60
2021/04/06 02:17:28;;;;;;;16.52;10.23;;;;;;;1.82;65.45;98126.89;1743022;82;21187;-60
2021/04/06 02:19:55;;;;;;;15.40;9.85;;;;;;;1.81;65.47;98129.28;1740887;82;21202;-60
2021/04/06 02:22:22;;;;;;;17.42;9.93;;;;;;;1.83;65.39;98133.36;1742814;82;21173;-60
2021/04/06 02:24:52;;;;;;;18.30;10.55;;;;;;;1.83;65.41;98132.55;1727017;82;21295;-60
2021/04/06 02:27:30;;;;;;;15.85;9.95;;;;;;;1.84;65.43;98124.22;1738265;82;21545;-60
2021/04/06 02:29:59;;;;;;;16.57;10.28;;;;;;;1.83;65.50;98138.72;1740522;82;21165;-60
2021/04/06 02:32:34;;;;;;;18.70;10.72;;;;;;;1.84;65.59;98145.69;1734602;82;21185;-60
2021/04/06 02:35:11;;;;;;;17.85;10.60;;;;;;;1.84;65.72;98138.20;1736550;82;21617;-60
2021/04/06 02:37:45;;;;;;;16.73;10.63;;;;;;;1.86;65.63;98131.50;1737347;82;21653;-60
2021/04/06 02:40:15;;;;;;;19.67;10.90;;;;;;;1.85;65.84;98135.77;1721759;82;21138;-60
2021/04/06 02:42:47;;;;;;;19.10;11.57;;;;;;;1.84;66.05;98123.44;1720115;82;21369;-60
2021/04/06 02:45:22;;;;;;;21.85;13.85;;;;;;;1.84;66.14;98124.78;1711175;84;21559;-60
2021/04/06 02:47:54;;;;;;;25.80;14.28;;;;;;;1.85;66.01;98127.19;1722660;82;21187;-60
2021/04/06 02:50:25;;;;;;;22.87;13.40;;;;;;;1.88;65.88;98130.70;1736837;82;21158;-60
2021/04/06 02:52:53;;;;;;;17.95;11.60;;;;;;;1.92;65.85;98128.31;1710108;82;21365;-60
2021/04/06 02:55:22;;;;;;;15.60;10.55;;;;;;;1.92;65.88;98125.64;1744674;82;21157;-59
2021/04/06 02:57:53;;;;;;;17.57;10.40;;;;;;;1.93;65.98;98127.27;1696468;83;21209;-59
2021/04/06 03:00:32;;;;;;;16.20;10.82;;;;;;;1.92;66.09;98128.31;1735201;82;21169;-60
2021/04/06 03:03:07;;;;;;;16.50;10.35;;;;;;;1.90;66.22;98124.56;1737002;82;21206;-60
2021/04/06 03:05:39;;;;;;;15.63;10.28;;;;;;;1.91;66.23;98130.75;1736950;82;21130;-59
2021/04/06 03:08:07;;;;;;;14.38;10.32;;;;;;;1.90;66.23;98125.09;1745908;81;21214;-60
2021/04/06 03:10:35;;;;;;;17.00;10.13;;;;;;;1.92;66.20;98122.42;1754634;81;21155;-60
2021/04/06 03:13:09;;;;;;;17.07;10.53;;;;;;;1.93;66.28;98129.95;1740951;82;21185;-60
2021/04/06 03:15:41;;;;;;;15.35;10.10;;;;;;;1.98;66.13;98135.38;1727896;81;21558;-60
2021/04/06 03:18:10;;;;;;;16.12;9.58;;;;;;;1.96;66.12;98138.30;1752893;81;21634;-60
2021/04/06 03:20:39;;;;;;;18.80;10.78;;;;;;;2.02;66.15;98133.77;1741329;81;21167;-59
2021/04/06 03:23:07;;;;;;;16.62;10.72;;;;;;;2.09;65.96;98136.27;1740675;82;21814;-60
2021/04/06 03:25:37;;;;;;;16.57;11.10;;;;;;;2.08;66.04;98130.61;1746457;81;21132;-60
2021/04/06 03:28:10;;;;;;;16.12;11.30;;;;;;;2.00;66.36;98134.05;1743152;81;21723;-60
2021/04/06 03:30:38;;;;;;;18.02;10.90;;;;;;;2.02;66.29;98131.09;1748615;81;21189;-60
2021/04/06 03:33:10;;;;;;;16.27;10.88;;;;;;;2.06;66.16;98138.09;1741053;82;21177;-59
2021/04/06 03:35:40;;;;;;;17.40;10.45;;;;;;;2.05;66.31;98132.47;1743333;81;21166;-60
2021/04/06 03:38:10;;;;;;;18.35;9.95;;;;;;;2.04;66.23;98131.66;1740990;81;21185;-59
2021/04/06 03:40:39;;;;;;;15.30;10.08;;;;;;;2.12;66.05;98137.09;1741842;81;21171;-60
2021/04/06 03:43:16;;;;;;;17.15;10.43;;;;;;;2.15;65.96;98144.11;1742966;82;21220;-60
2021/04/06 03:46:04;;;;;;;18.67;11.08;;;;;;;2.20;65.72;98145.47;1749732;81;21284;-60
2021/04/06 03:48:34;;;;;;;16.55;10.40;;;;;;;2.22;65.78;98143.88;1740922;82;21219;-60
2021/04/06 03:51:26;;;;;;;16.95;10.98;;;;;;;2.22;65.83;98152.75;1676132;84;21313;-60
2021/04/06 03:53:53;;;;;;;16.55;10.70;;;;;;;2.22;65.80;98150.06;1740926;81;21114;-60
2021/04/06 03:56:30;;;;;;;15.80;10.35;;;;;;;2.21;66.08;98151.66;1743464;81;21166;-60
2021/04/06 03:58:58;;;;;;;18.20;10.77;;;;;;;2.21;66.26;98155.16;1748616;81;21614;-60
2021/04/06 04:01:26;;;;;;;14.98;9.63;;;;;;;2.20;66.26;98156.20;1742913;81;21154;-60
2021/04/06 04:03:55;;;;;;;15.58;10.80;;;;;;;2.31;65.93;98162.47;1743118;81;21598;-60
2021/04/06 04:06:28;;;;;;;17.80;10.23;;;;;;;2.38;65.68;98157.16;1740779;82;21150;-60
2021/04/06 04:08:56;;;;;;;16.27;9.83;;;;;;;2.36;65.72;98162.00;1744664;82;21193;-60
2021/04/06 04:11:23;;;;;;;16.67;10.08;;;;;;;2.35;65.53;98159.55;1748551;82;21662;-59
2021/04/06 04:13:51;;;;;;;17.57;10.72;;;;;;;2.36;65.64;98163.87;1749081;80;21339;-59
2021/04/06 04:16:18;;;;;;;16.75;10.25;;;;;;;2.37;65.51;98163.59;1749129;80;21355;-60
2021/04/06 04:18:46;;;;;;;16.77;10.25;;;;;;;2.41;65.50;98163.36;1749249;80;21197;-59
2021/04/06 04:21:14;;;;;;;16.17;10.78;;;;;;;2.49;65.32;98157.52;1748757;80;21157;-60
2021/04/06 04:23:41;;;;;;;21.57;11.50;;;;;;;2.60;65.17;98154.90;1749461;80;21679;-59
2021/04/06 04:26:10;;;;;;;20.55;13.10;;;;;;;2.62;65.19;98160.84;1748713;80;21593;-59
2021/04/06 04:28:38;;;;;;;26.25;15.78;;;;;;;2.62;65.14;98156.81;1748309;82;21357;-61
2021/04/06 04:33:42;;;;;;;27.07;16.05;;;;;;;2.74;64.84;98150.16;1753363;79;23152;-59
2021/04/06 04:36:10;;;;;;;27.22;15.93;;;;;;;2.82;64.61;98159.61;1697383;83;21310;-59
2021/04/06 04:38:37;;;;;;;26.85;16.73;;;;;;;2.83;64.59;98159.37;1710930;82;21186;-59
2021/04/06 04:41:05;;;;;;;38.00;20.88;;;;;;;2.83;64.26;98156.69;1707271;83;21177;-59
2021/04/06 04:43:33;;;;;;;46.55;24.43;;;;;;;2.84;64.26;98158.81;1712180;82;21241;-62
2021/04/06 04:46:01;;;;;;;45.03;24.77;;;;;;;2.86;63.56;98155.34;1668413;85;21197;-60
2021/04/06 04:48:29;;;;;;;40.33;21.95;;;;;;;2.90;63.73;98160.48;1715750;83;21156;-60
2021/04/06 04:50:56;;;;;;;35.43;20.82;;;;;;;2.94;63.62;98162.36;1700033;83;21624;-60
2021/04/06 04:53:24;;;;;;;35.95;18.98;;;;;;;3.00;63.66;98162.69;1694756;83;21225;-60
2021/04/06 04:55:52;;;;;;;26.55;16.70;;;;;;;3.05;63.32;98164.57;1708342;83;21176;-60
2021/04/06 04:58:19;;;;;;;23.00;14.40;;;;;;;3.12;63.61;98169.17;1704495;83;21307;-60
2021/04/06 05:00:47;;;;;;;24.80;13.45;;;;;;;3.19;63.23;98165.72;1721840;83;21617;-60
2021/04/06 05:03:15;;;;;;;21.62;12.82;;;;;;;3.25;63.11;98163.34;1721365;82;21325;-60
2021/04/06 05:05:43;;;;;;;19.05;12.65;;;;;;;3.37;62.95;98169.30;1685032;83;21169;-60
2021/04/06 05:08:11;;;;;;;21.00;13.15;;;;;;;3.44;62.58;98165.83;1722024;82;21149;-60
2021/04/06 05:10:38;;;;;;;17.73;11.68;;;;;;;3.51;62.40;98165.58;1719647;83;21771;-60
2021/04/06 05:13:05;;;;;;;20.27;11.93;;;;;;;3.59;62.01;98169.11;1709474;82;21211;-60
2021/04/06 05:15:33;;;;;;;18.20;11.75;;;;;;;3.67;62.01;98170.48;1702638;83;21157;-60
2021/04/06 05:18:01;;;;;;;17.42;11.43;;;;;;;3.78;60.71;98159.48;1719399;82;21295;-60
2021/04/06 05:20:29;;;;;;;16.87;10.68;;;;;;;3.90;60.84;98160.56;1704462;83;21198;-60
2021/04/06 05:22:56;;;;;;;18.98;11.93;;;;;;;3.97;60.32;98156.53;1679123;85;21636;-60
2021/04/06 05:25:24;;;;;;;17.00;11.50;;;;;;;4.08;60.45;98165.44;1719477;83;21152;-60
2021/04/06 05:27:51;;;;;;;16.05;10.93;;;;;;;4.22;60.00;98154.41;1693691;85;21180;-60
2021/04/06 05:30:21;;;;;;;20.65;13.03;;;;;;;4.37;59.60;98162.50;1698181;83;21291;-60
2021/04/06 05:32:48;;;;;;;22.20;12.93;;;;;;;4.48;58.95;98157.91;1699499;83;21581;-60
2021/04/06 05:35:16;;;;;;;22.10;13.22;;;;;;;4.59;59.02;98153.32;1685740;84;21744;-60
2021/04/06 05:37:45;;;;;;;21.82;14.15;;;;;;;4.72;58.67;98153.57;1693525;82;21903;-60
2021/04/06 05:40:13;;;;;;;24.07;14.60;;;;;;;4.87;58.03;98152.73;1686684;84;21280;-60
2021/04/06 05:42:42;;;;;;;29.20;15.93;;;;;;;5.03;57.61;98153.77;1698262;84;21169;-60
2021/04/06 05:45:10;;;;;;;26.85;15.78;;;;;;;5.20;56.07;98156.16;1682344;84;21102;-60
2021/04/06 05:47:48;;;;;;;28.90;16.27;;;;;;;5.37;55.92;98164.73;1678023;84;21215;-60
2021/04/06 05:50:17;;;;;;;27.10;17.27;;;;;;;5.57;55.39;98171.92;1680642;84;21194;-60
2021/04/06 05:52:44;;;;;;;30.32;17.05;;;;;;;5.78;54.93;98167.22;1701224;82;21600;-60
2021/04/06 05:55:12;;;;;;;33.48;19.25;;;;;;;5.95;54.67;98163.66;1704415;84;21145;-60
2021/04/06 05:57:40;;;;;;;40.48;21.00;;;;;;;6.12;54.08;98168.14;1687104;84;21187;-60
2021/04/06 06:00:09;;;;;;;39.60;21.52;;;;;;;6.30;52.78;98173.42;1702920;84;21141;-60
2021/04/06 06:02:37;;;;;;;33.60;20.45;;;;;;;6.44;53.00;98172.50;1702891;82;21193;-59
2021/04/06 06:05:06;;;;;;;33.13;20.20;;;;;;;6.58;53.25;98167.24;1708463;84;21993;-59
2021/04/06 06:07:34;;;;;;;34.15;19.00;;;;;;;6.75;52.32;98177.09;1684794;84;21185;-59
2021/04/06 06:10:28;;;;;;;33.70;18.75;;;;;;;6.87;51.08;98174.80;1702332;84;21186;-60
2021/04/06 06:13:21;;;;;;;30.02;17.40;;;;;;;6.99;51.34;98173.06;1682820;84;21211;-59
2021/04/06 06:16:11;;;;;;;29.02;18.07;;;;;;;7.08;50.64;98177.31;1696280;84;21716;-59
2021/04/06 06:19:04;;;;;;;24.00;15.10;;;;;;;7.19;50.29;98172.06;1680717;85;21231;-59
2021/04/06 06:21:49;;;;;;;22.50;13.22;;;;;;;7.25;50.85;98180.37;1683666;84;21150;-60
2021/04/06 06:24:29;;;;;;;21.37;13.55;;;;;;;7.30;50.55;98183.82;1626003;87;21176;-60
2021/04/06 06:26:57;;;;;;;19.07;12.10;;;;;;;7.40;50.99;98182.34;1708357;82;21153;-60
2021/04/06 06:29:29;;;;;;;19.00;12.55;;;;;;;7.51;49.91;98192.51;1682515;84;21277;-59
2021/04/06 06:31:59;;;;;;;19.55;12.53;;;;;;;7.57;50.06;98190.02;1671946;84;21165;-59
2021/04/06 06:34:34;;;;;;;17.32;11.68;;;;;;;7.64;50.18;98196.44;1681087;84;21696;-59
2021/04/06 06:37:17;;;;;;;12.47;9.25;;;;;;;7.71;50.08;98188.77;1690186;84;21578;-59
2021/04/06 06:39:56;;;;;;;14.95;10.18;;;;;;;7.80;49.99;98186.46;1707321;83;21311;-59
2021/04/06 06:42:28;;;;;;;15.05;10.08;;;;;;;7.92;50.20;98186.05;1684190;84;21323;-59
2021/04/06 06:44:56;;;;;;;13.83;9.28;;;;;;;8.05;49.26;98188.02;1680988;85;21174;-59
2021/04/06 06:47:28;;;;;;;13.98;9.20;;;;;;;8.17;48.54;98190.30;1634535;88;21232;-59
2021/04/06 06:50:12;;;;;;;12.35;8.85;;;;;;;8.28;48.25;98193.97;1699484;84;21121;-58
2021/04/06 06:52:40;;;;;;;15.15;9.83;;;;;;;8.38;47.41;98193.80;1699738;84;21543;-60
2021/04/06 06:55:23;;;;;;;13.50;9.08;;;;;;;8.43;46.67;98191.00;1697180;84;21312;-59
2021/04/06 06:58:02;;;;;;;13.22;7.83;;;;;;;8.54;46.61;98200.36;1682584;84;21219;-59
2021/04/06 07:00:30;;;;;;;13.93;8.95;;;;;;;8.68;46.50;98207.42;1634009;88;21177;-59
2021/04/06 07:02:57;;;;;;;13.90;7.90;;;;;;;8.82;45.37;98200.70;1666675;86;21769;-59
2021/04/06 07:05:27;;;;;;;15.05;8.55;;;;;;;8.91;44.73;98195.65;1684236;84;21157;-59
2021/04/06 07:08:03;;;;;;;12.78;8.15;;;;;;;9.03;45.12;98197.89;1697264;84;21181;-59
2021/04/06 07:10:39;;;;;;;13.65;7.85;;;;;;;9.18;45.46;98196.78;1709180;84;21156;-59
2021/04/06 07:13:14;;;;;;;13.20;7.22;;;;;;;9.27;44.01;98203.96;1706953;84;21760;-59
2021/04/06 07:15:44;;;;;;;13.45;7.40;;;;;;;9.34;43.24;98198.12;1629289;88;21205;-59
2021/04/06 07:18:16;;;;;;;12.07;8.08;;;;;;;9.37;43.08;98201.05;1703366;84;22578;-59
2021/04/06 07:21:00;;;;;;;10.55;6.97;;;;;;;9.49;43.74;98197.27;1693416;82;21170;-59
2021/04/06 07:24:04;;;;;;;12.43;7.55;;;;;;;9.65;43.15;98200.50;1696960;84;21171;-59
2021/04/06 07:26:32;;;;;;;15.08;7.95;;;;;;;9.77;42.74;98200.00;1709151;84;21264;-60
2021/04/06 07:29:00;;;;;;;12.50;7.60;;;;;;;9.85;42.07;98203.34;1702151;84;21199;-59
2021/04/06 07:31:28;;;;;;;11.43;7.53;;;;;;;9.96;41.43;98208.81;1705722;84;21166;-59
2021/04/06 07:33:55;;;;;;;13.53;7.95;;;;;;;10.18;41.22;98207.55;1695007;83;21212;-59
2021/04/06 07:36:25;;;;;;;12.68;7.83;;;;;;;10.47;41.82;98208.53;1699487;84;21808;-59
2021/04/06 07:39:00;;;;;;;19.25;9.18;;;;;;;10.79;41.32;98207.48;1704181;84;21611;-59
2021/04/06 07:41:30;;;;;;;21.62;11.78;;;;;;;11.12;40.16;98203.94;1704210;84;21133;-59
2021/04/06 07:43:59;;;;;;;15.90;10.18;;;;;;;11.38;39.58;98194.77;1705878;84;21145;-60
2021/04/06 07:46:44;;;;;;;11.83;7.72;;;;;;;11.63;38.94;98201.44;1695137;84;21612;-59
2021/04/06 07:49:22;;;;;;;16.50;10.00;;;;;;;11.73;38.29;98193.55;1682665;84;21722;-59
2021/04/06 07:51:52;;;;;;;12.63;7.80;;;;;;;11.90;38.35;98192.27;1700409;84;21177;-59
2021/04/06 07:54:32;;;;;;;13.62;8.55;;;;;;;12.09;36.53;98189.23;1706931;84;21137;-60
2021/04/06 07:57:02;;;;;;;11.88;7.80;;;;;;;12.24;37.39;98192.31;1707232;84;21170;-60
2021/04/06 07:59:36;;;;;;;12.65;7.75;;;;;;;12.34;36.74;98188.45;1707101;82;21292;-59
2021/04/06 08:02:14;;;;;;;12.70;7.55;;;;;;;12.41;36.03;98193.68;1697131;84;21589;-59
2021/04/06 08:04:50;;;;;;;9.93;7.33;;;;;;;12.58;36.21;98198.89;1693808;84;21178;-60
2021/04/06 08:07:27;;;;;;;;;;;;;;;12.85;35.65;98193.91;1637603;87;21344;-60
2021/04/06 08:09:59;;;;;;;12.10;7.75;;;;;;;13.07;35.47;98199.73;1669691;86;20190;-61
2021/04/06 08:12:33;;;;;;;11.88;7.42;;;;;;;13.04;35.60;98183.97;1657608;86;21190;-61
2021/04/06 08:15:09;;;;;;;11.38;8.33;;;;;;;13.35;36.37;98194.70;1658934;86;21135;-61
2021/04/06 08:17:54;;;;;;;12.80;7.58;;;;;;;13.58;34.86;98188.41;1656529;86;21170;-61
2021/04/06 08:20:44;;;;;;;12.20;8.38;;;;;;;13.55;34.22;98193.98;1685213;84;21102;-61
2021/04/06 08:23:17;;;;;;;9.55;6.95;;;;;;;13.45;35.64;98188.31;1700768;82;21549;-61
2021/04/06 08:25:47;;;;;;;11.93;7.37;;;;;;;13.58;34.86;98188.41;1689518;84;21149;-61
2021/04/06 08:28:31;;;;;;;14.63;8.23;;;;;;;13.67;34.46;98187.82;1709075;84;21186;-61
2021/04/06 08:31:27;;;;;;;12.10;7.58;;;;;;;13.75;34.59;98187.76;1689762;84;21122;-61
2021/04/06 08:34:17;;;;;;;9.85;6.97;;;;;;;13.88;33.44;98194.14;1701127;83;21165;-61
2021/04/06 08:36:50;;;;;;;9.55;6.60;;;;;;;14.03;34.01;98193.55;1706389;83;21157;-61
2021/04/06 08:39:21;;;;;;;8.13;5.80;;;;;;;14.26;33.58;98182.55;1682867;83;21160;-61
2021/04/06 08:41:49;;;;;;;10.10;6.60;;;;;;;14.42;33.47;98191.78;1680974;84;21106;-61
2021/04/06 08:44:18;;;;;;;10.10;6.75;;;;;;;14.37;32.15;98186.53;1639345;84;21126;-60
2021/04/06 08:46:48;;;;;;;10.32;6.55;;;;;;;14.40;33.06;98181.75;1700388;84;21314;-60
2021/04/06 08:49:23;;;;;;;13.00;7.03;;;;;;;14.51;32.62;98185.45;1703155;84;21577;-60
2021/04/06 08:51:57;;;;;;;7.95;6.15;;;;;;;14.66;33.02;98184.84;1680854;84;21163;-61
2021/04/06 08:54:31;;;;;;;8.88;6.67;;;;;;;14.81;32.35;98185.58;1706705;84;21697;-61
2021/04/06 08:57:06;;;;;;;9.48;7.00;;;;;;;14.89;31.17;98182.77;1713765;82;21128;-61
2021/04/06 08:59:42;;;;;;;8.08;5.60;;;;;;;14.87;33.00;98178.20;1877989;75;23388;-60
2021/04/06 09:02:14;;;;;;;10.65;6.78;;;;;;;14.99;30.80;98187.02;1853983;77;21564;-60
2021/04/06 09:04:46;;;;;;;8.95;6.70;;;;;;;14.96;30.79;98182.21;1835400;77;21156;-61
2021/04/06 09:07:25;;;;;;;8.60;6.12;;;;;;;14.65;31.29;98179.94;1830468;76;21144;-60
2021/04/06 09:09:58;;;;;;;9.43;6.22;;;;;;;14.50;32.29;98180.53;1835044;76;21658;-60
2021/04/06 09:12:27;;;;;;;11.38;6.65;;;;;;;14.62;31.63;98175.13;1844406;77;21128;-60
2021/04/06 09:14:55;;;;;;;7.90;5.92;;;;;;;14.68;31.56;98181.99;1860109;76;21145;-61
2021/04/06 09:17:27;;;;;;;8.53;6.15;;;;;;;14.63;31.37;98180.05;1818651;77;21568;-59
2021/04/06 09:19:55;;;;;;;12.58;8.08;;;;;;;14.53;31.55;98173.02;1845261;77;21109;-60
2021/04/06 09:25:28;;;;;;;9.43;6.37;;;;;;;14.37;32.29;98161.09;1798511;79;23365;-59
2021/04/06 09:28:00;;;;;;;9.58;6.12;;;;;;;14.18;32.08;98168.35;1762476;80;21412;-59
2021/04/06 09:30:40;;;;;;;9.78;5.30;;;;;;;14.15;33.06;98170.95;1760875;80;21851;-61
2021/04/06 09:33:10;;;;;;;8.05;5.58;;;;;;;14.25;32.32;98165.08;1761732;80;21152;-60
2021/04/06 09:35:37;;;;;;;11.18;6.58;;;;;;;14.38;32.85;98168.95;1769647;79;21136;-60
2021/04/06 09:38:05;;;;;;;9.03;6.55;;;;;;;14.54;32.05;98168.34;1739224;80;21156;-59
2021/04/06 09:40:38;;;;;;;10.78;6.65;;;;;;;14.66;31.78;98173.89;1768680;79;21165;-59
2021/04/06 09:43:06;;;;;;;11.03;7.03;;;;;;;14.66;32.39;98171.16;1729207;81;21542;-59
2021/04/06 09:45:34;;;;;;;12.55;8.23;;;;;;;14.80;32.76;98171.66;1684331;84;21176;-59
2021/04/06 09:48:02;;;;;;;10.82;8.60;;;;;;;14.81;31.87;98169.94;1706764;84;21214;-59
2021/04/06 09:50:30;;;;;;;13.88;9.70;;;;;;;14.83;31.88;98177.27;1711968;82;21190;-60
2021/04/06 09:52:58;;;;;;;11.95;7.37;;;;;;;14.78;31.41;98171.98;1718085;82;21658;-60
2021/04/06 09:55:28;;;;;;;12.65;8.53;;;;;;;14.79;31.51;98170.05;1721869;82;21161;-59
2021/04/06 09:58:02;;;;;;;11.75;7.25;;;;;;;14.61;31.42;98168.61;1709459;82;21161;-60
2021/04/06 10:00:32;;;;;;;17.55;7.20;;;;;;;14.46;31.65;98171.38;1708487;82;21145;-60
2021/04/06 10:03:09;;;;;;;9.03;7.03;;;;;;;14.26;31.93;98156.55;1718382;82;21695;-60
2021/04/06 10:05:43;;;;;;;11.60;7.53;;;;;;;14.40;31.93;98165.89;1723187;83;21178;-59
2021/04/06 10:08:13;;;;;;;10.80;7.10;;;;;;;14.58;31.25;98153.66;1712592;82;21171;-59
2021/04/06 10:10:49;;;;;;;10.43;6.87;;;;;;;14.72;31.25;98154.73;1711748;82;21123;-59
2021/04/06 10:13:17;;;;;;;10.98;7.20;;;;;;;14.62;31.24;98154.59;1716113;82;21676;-59
2021/04/06 10:15:45;;;;;;;13.60;8.15;;;;;;;14.53;32.01;98149.74;1718253;82;21172;-59
2021/04/06 10:18:15;;;;;;;10.32;7.50;;;;;;;14.51;31.92;98148.48;1715106;82;21645;-59
2021/04/06 10:20:50;;;;;;;9.93;6.85;;;;;;;14.34;31.52;98144.77;1710186;82;21355;-59
2021/04/06 10:23:33;;;;;;;13.80;8.08;;;;;;;14.23;32.57;98145.47;1714526;82;21240;-60
2021/04/06 10:26:02;;;;;;;14.00;10.00;;;;;;;14.28;32.56;98132.94;1711940;83;21209;-60
2021/04/06 10:28:31;;;;;;;12.10;9.15;;;;;;;14.35;32.55;98136.77;1745011;81;21234;-58
2021/04/06 10:31:02;;;;;;;15.35;10.45;;;;;;;14.32;32.54;98137.98;1763885;81;21158;-58
2021/04/06 10:33:38;;;;;;;16.02;8.90;;;;;;;14.24;33.33;98135.54;1750818;81;21573;-59
2021/04/06 10:36:17;;;;;;;9.95;7.92;;;;;;;14.13;33.16;98134.92;1746628;81;21115;-59
2021/04/06 10:38:45;;;;;;;12.25;8.60;;;;;;;14.04;32.79;98146.48;1749919;81;21211;-60
2021/04/06 10:41:18;;;;;;;13.08;8.78;;;;;;;14.08;33.90;98145.49;1752587;81;21589;-60
2021/04/06 10:43:49;;;;;;;12.07;7.97;;;;;;;14.31;32.91;98139.91;1753000;81;21162;-59
2021/04/06 10:46:20;;;;;;;9.38;7.40;;;;;;;14.34;32.15;98135.75;1754591;80;21148;-60
2021/04/06 10:48:54;;;;;;;11.60;8.18;;;;;;;14.28;32.49;98137.84;1747350;81;21668;-60
2021/04/06 10:51:24;;;;;;;11.78;8.48;;;;;;;14.15;32.38;98138.92;1741836;81;21177;-60
2021/04/06 10:54:01;;;;;;;11.65;7.67;;;;;;;13.98;32.80;98140.98;1756716;81;21737;-60
2021/04/06 10:56:34;;;;;;;11.15;7.95;;;;;;;13.80;32.74;98143.83;1751502;81;21612;-61
2021/04/06 10:59:08;;;;;;;11.35;8.45;;;;;;;13.64;33.27;98139.27;1739256;81;21622;-60
2021/04/06 11:01:43;;;;;;;14.03;8.63;;;;;;;13.59;33.42;98140.80;1768624;81;21550;-60
2021/04/06 11:04:29;;;;;;;11.85;7.40;;;;;;;13.64;33.65;98135.94;1747788;81;21098;-61
2021/04/06 11:07:02;;;;;;;11.03;8.05;;;;;;;13.68;34.13;98136.89;1754453;81;21194;-60
2021/04/06 11:09:45;;;;;;;11.70;7.70;;;;;;;13.71;33.85;98136.81;1748862;81;21198;-60
2021/04/06 11:12:14;;;;;;;10.98;6.92;;;;;;;13.66;34.16;98134.25;1748234;81;21604;-61
2021/04/06 11:14:44;;;;;;;10.15;7.05;;;;;;;13.59;33.51;98142.17;1748561;81;21217;-60
2021/04/06 11:17:15;;;;;;;10.58;7.20;;;;;;;13.45;33.95;98135.58;1744931;82;21165;-60
2021/04/06 11:19:45;;;;;;;10.75;7.80;;;;;;;13.36;34.08;98135.59;1751664;81;21598;-60
2021/04/06 11:22:16;;;;;;;14.60;8.68;;;;;;;13.30;34.31;98141.02;1747627;81;21142;-60
2021/04/06 11:24:47;;;;;;;10.00;7.97;;;;;;;13.22;34.24;98135.02;1763149;81;21165;-60
2021/04/06 11:27:17;;;;;;;10.93;7.62;;;;;;;13.12;34.03;98135.38;1758678;80;21188;-59
2021/04/06 11:29:44;;;;;;;10.82;7.90;;;;;;;13.01;34.46;98134.09;1761195;81;21664;-59
2021/04/06 11:32:18;;;;;;;14.40;8.93;;;;;;;12.84;34.52;98137.68;1711948;82;21623;-60
2021/04/06 11:34:46;;;;;;;12.37;7.70;;;;;;;12.70;35.13;98136.26;1746033;80;21157;-59
2021/04/06 11:37:13;;;;;;;10.88;7.85;;;;;;;12.65;35.45;98133.69;1758751;81;21644;-59
2021/04/06 11:39:45;;;;;;;11.53;7.65;;;;;;;12.60;35.62;98130.58;1755211;80;21492;-59
2021/04/06 11:42:14;;;;;;;9.83;7.45;;;;;;;12.60;35.80;98135.23;1749936;81;21126;-59
2021/04/06 11:44:43;;;;;;;8.60;6.58;;;;;;;12.63;36.03;98131.85;1752063;80;21718;-58
2021/04/06 11:47:10;;;;;;;12.35;7.65;;;;;;;12.67;35.42;98119.16;1759567;81;21134;-59
2021/04/06 11:49:39;;;;;;;9.80;6.78;;;;;;;12.68;35.18;98116.69;1762599;80;21118;-59
2021/04/06 11:52:06;;;;;;;10.23;7.45;;;;;;;12.73;35.79;98115.12;1763430;80;21157;-60
2021/04/06 11:54:34;;;;;;;11.83;7.33;;;;;;;12.76;35.54;98109.02;1747893;80;21149;-60
2021/04/06 11:57:02;;;;;;;11.73;7.78;;;;;;;12.79;35.79;98116.55;1752874;81;21121;-60